< < Back
Terminal Aerodrome Forecast


Current Version              Previous Versions:   1  2  3  4  5  6  7  8  9  

Terminal Aerodrome Forecast

040
FTUS44 KBMX 020520
TAFANB
TAF
KANB 020520Z 0206/0306 VRB03KT P6SM SCT250
     FM020800 00000KT 5SM BR SCT250
      TEMPO 0210/0212 2SM BR
     FM021900 04004KT P6SM BKN050=



Latest METAR

061
SAUS70 KWBC 022100
MTRANB
METAR KANB 022053Z AUTO 00000KT 10SM SCT100 31/21 A3003 RMK AO2 SLP158
T03110206 57016


USA.gov is the U.S. government's official web portal to all federal, state and local government web resources and services.